< < Back
Terminal Aerodrome Forecast


Current Version              Previous Versions:   1  2  3  4  5  6  7  8  9  

Terminal Aerodrome Forecast

602
FTUS42 KFFC 172320
TAFAHN
TAF
KAHN 172320Z 1800/1824 29004KT P6SM BKN250
     FM180900 00000KT P6SM SCT150 BKN250
     FM181600 32004KT P6SM BKN060=



Latest METAR

763
SAUS70 KWBC 180900
MTRAHN
METAR KAHN 180851Z AUTO 30006KT 10SM CLR 03/01 A3010 RMK AO2 SLP195
T00280006 51005


USA.gov is the U.S. government's official web portal to all federal, state and local government web resources and services.